Terminal Aerodrome Forecast
Issued by NWS

Home | Current Version | Previous Version | Text Only | Print | Product List | Glossary On
Versions: 1 2 3 4 5 6 7 8 9 10 11 12 13
000
FTUS46 KMTR 240500
TAFOAK
TAF
KOAK 240539Z 2406/2512 31005KT P6SM FEW015 SCT200
     FM241200 31005KT P6SM SCT015 OVC025
     FM241700 27009KT P6SM SCT025 SCT150
     FM242000 27013KT P6SM SCT025 BKN150
     FM242200 27015G25KT P6SM OVC150
     FM250400 27010KT P6SM OVC025=

USA.gov is the U.S. government's official web portal to all federal, state and local government web resources and services.